sensor_id;sensor_type;location;lat;lon;timestamp;temperature;humidity
24636;DHT22;12772;49.794;10.024;2023-01-19T00:02:16;-0.50;45.50
24636;DHT22;12772;49.794;10.024;2023-01-19T00:06:18;-0.40;45.90
24636;DHT22;12772;49.794;10.024;2023-01-19T00:10:20;-0.60;46.70
24636;DHT22;12772;49.794;10.024;2023-01-19T00:14:22;-0.20;46.90
24636;DHT22;12772;49.794;10.024;2023-01-19T00:18:27;0.10;47.60
24636;DHT22;12772;49.794;10.024;2023-01-19T00:22:29;0.10;47.80
24636;DHT22;12772;49.794;10.024;2023-01-19T00:26:31;0.20;48.00
24636;DHT22;12772;49.794;10.024;2023-01-19T00:30:33;0.00;47.90
24636;DHT22;12772;49.794;10.024;2023-01-19T00:34:35;0.00;49.00
24636;DHT22;12772;49.794;10.024;2023-01-19T00:38:39;0.10;49.50
24636;DHT22;12772;49.794;10.024;2023-01-19T00:42:41;0.00;49.90
24636;DHT22;12772;49.794;10.024;2023-01-19T00:46:44;0.00;50.30
24636;DHT22;12772;49.794;10.024;2023-01-19T00:50:47;0.10;50.80
24636;DHT22;12772;49.794;10.024;2023-01-19T00:54:49;0.30;51.20
24636;DHT22;12772;49.794;10.024;2023-01-19T00:58:51;0.30;51.00
24636;DHT22;12772;49.794;10.024;2023-01-19T01:02:54;0.10;51.00
24636;DHT22;12772;49.794;10.024;2023-01-19T01:06:56;0.10;51.00
24636;DHT22;12772;49.794;10.024;2023-01-19T01:10:58;0.00;50.60
24636;DHT22;12772;49.794;10.024;2023-01-19T01:15:00;0.10;50.90
24636;DHT22;12772;49.794;10.024;2023-01-19T01:19:02;0.20;50.60
24636;DHT22;12772;49.794;10.024;2023-01-19T01:23:04;-0.30;50.30
24636;DHT22;12772;49.794;10.024;2023-01-19T01:27:06;0.30;50.60
24636;DHT22;12772;49.794;10.024;2023-01-19T01:31:11;0.20;50.10
24636;DHT22;12772;49.794;10.024;2023-01-19T01:35:14;0.40;50.40
24636;DHT22;12772;49.794;10.024;2023-01-19T01:39:16;0.60;49.70
24636;DHT22;12772;49.794;10.024;2023-01-19T01:43:18;0.00;48.50
24636;DHT22;12772;49.794;10.024;2023-01-19T01:47:31;0.20;48.00
24636;DHT22;12772;49.794;10.024;2023-01-19T01:51:37;0.70;48.70
24636;DHT22;12772;49.794;10.024;2023-01-19T01:55:46;0.30;49.20
24636;DHT22;12772;49.794;10.024;2023-01-19T01:59:49;0.30;48.10
24636;DHT22;12772;49.794;10.024;2023-01-19T02:03:52;0.10;48.40
24636;DHT22;12772;49.794;10.024;2023-01-19T02:12:17;0.50;48.70
24636;DHT22;12772;49.794;10.024;2023-01-19T02:16:37;0.60;48.30
24636;DHT22;12772;49.794;10.024;2023-01-19T02:20:44;0.50;48.60
24636;DHT22;12772;49.794;10.024;2023-01-19T02:24:48;0.40;48.50
24636;DHT22;12772;49.794;10.024;2023-01-19T02:29:02;0.30;48.80
24636;DHT22;12772;49.794;10.024;2023-01-19T02:33:04;0.30;48.20
24636;DHT22;12772;49.794;10.024;2023-01-19T02:37:10;-0.10;47.70
24636;DHT22;12772;49.794;10.024;2023-01-19T02:41:16;0.40;48.60
24636;DHT22;12772;49.794;10.024;2023-01-19T02:45:21;0.30;48.40
24636;DHT22;12772;49.794;10.024;2023-01-19T02:49:26;0.70;49.00
24636;DHT22;12772;49.794;10.024;2023-01-19T02:58:19;0.70;48.60
24636;DHT22;12772;49.794;10.024;2023-01-19T03:06:48;0.50;48.30
24636;DHT22;12772;49.794;10.024;2023-01-19T03:14:59;0.50;48.80
24636;DHT22;12772;49.794;10.024;2023-01-19T03:19:22;-0.10;47.80
24636;DHT22;12772;49.794;10.024;2023-01-19T03:23:30;0.30;48.40
24636;DHT22;12772;49.794;10.024;2023-01-19T03:27:36;0.40;48.20
24636;DHT22;12772;49.794;10.024;2023-01-19T03:31:43;-0.10;48.00
24636;DHT22;12772;49.794;10.024;2023-01-19T03:35:49;0.70;48.80
24636;DHT22;12772;49.794;10.024;2023-01-19T03:39:53;0.00;47.70
24636;DHT22;12772;49.794;10.024;2023-01-19T03:43:56;0.50;48.50
24636;DHT22;12772;49.794;10.024;2023-01-19T03:47:59;0.00;47.70
24636;DHT22;12772;49.794;10.024;2023-01-19T03:52:02;0.50;48.30
24636;DHT22;12772;49.794;10.024;2023-01-19T03:56:05;0.70;48.50
24636;DHT22;12772;49.794;10.024;2023-01-19T04:00:10;0.60;48.40
24636;DHT22;12772;49.794;10.024;2023-01-19T04:04:13;0.60;48.70
24636;DHT22;12772;49.794;10.024;2023-01-19T04:08:15;0.00;47.70
24636;DHT22;12772;49.794;10.024;2023-01-19T04:12:17;0.20;48.70
24636;DHT22;12772;49.794;10.024;2023-01-19T04:16:19;0.40;49.30
24636;DHT22;12772;49.794;10.024;2023-01-19T04:20:21;0.30;49.20
24636;DHT22;12772;49.794;10.024;2023-01-19T04:24:23;0.60;49.90
24636;DHT22;12772;49.794;10.024;2023-01-19T04:28:26;0.60;50.00
24636;DHT22;12772;49.794;10.024;2023-01-19T04:32:28;0.10;49.60
24636;DHT22;12772;49.794;10.024;2023-01-19T04:36:30;0.50;50.00
24636;DHT22;12772;49.794;10.024;2023-01-19T04:40:32;0.50;50.00
24636;DHT22;12772;49.794;10.024;2023-01-19T04:44:34;0.80;49.90
24636;DHT22;12772;49.794;10.024;2023-01-19T04:48:36;0.80;49.30
24636;DHT22;12772;49.794;10.024;2023-01-19T04:52:38;1.00;48.80
24636;DHT22;12772;49.794;10.024;2023-01-19T04:56:40;0.30;48.10
24636;DHT22;12772;49.794;10.024;2023-01-19T05:00:43;0.90;48.70
24636;DHT22;12772;49.794;10.024;2023-01-19T05:04:45;0.30;48.10
24636;DHT22;12772;49.794;10.024;2023-01-19T05:08:47;0.80;48.60
24636;DHT22;12772;49.794;10.024;2023-01-19T05:12:49;0.20;47.90
24636;DHT22;12772;49.794;10.024;2023-01-19T05:16:51;1.00;48.80
24636;DHT22;12772;49.794;10.024;2023-01-19T05:20:53;0.90;48.90
24636;DHT22;12772;49.794;10.024;2023-01-19T05:24:55;0.70;49.10
24636;DHT22;12772;49.794;10.024;2023-01-19T05:28:57;0.80;49.70
24636;DHT22;12772;49.794;10.024;2023-01-19T05:32:59;0.70;49.80
24636;DHT22;12772;49.794;10.024;2023-01-19T05:37:01;0.60;49.80
24636;DHT22;12772;49.794;10.024;2023-01-19T05:41:03;1.00;50.30
24636;DHT22;12772;49.794;10.024;2023-01-19T05:45:05;0.40;49.30
24636;DHT22;12772;49.794;10.024;2023-01-19T05:49:08;0.70;49.80
24636;DHT22;12772;49.794;10.024;2023-01-19T05:53:10;0.40;49.30
24636;DHT22;12772;49.794;10.024;2023-01-19T05:57:12;0.90;49.50
24636;DHT22;12772;49.794;10.024;2023-01-19T06:01:14;0.90;49.30
24636;DHT22;12772;49.794;10.024;2023-01-19T06:05:16;0.60;48.90
24636;DHT22;12772;49.794;10.024;2023-01-19T06:09:18;1.00;49.50
24636;DHT22;12772;49.794;10.024;2023-01-19T06:13:20;0.90;49.20
24636;DHT22;12772;49.794;10.024;2023-01-19T06:17:22;1.00;49.50
24636;DHT22;12772;49.794;10.024;2023-01-19T06:21:24;0.40;49.00
24636;DHT22;12772;49.794;10.024;2023-01-19T06:25:26;1.20;49.90
24636;DHT22;12772;49.794;10.024;2023-01-19T06:29:28;0.90;49.40
24636;DHT22;12772;49.794;10.024;2023-01-19T06:33:31;1.20;49.50
24636;DHT22;12772;49.794;10.024;2023-01-19T06:37:33;0.90;49.50
24636;DHT22;12772;49.794;10.024;2023-01-19T06:41:35;1.20;49.90
24636;DHT22;12772;49.794;10.024;2023-01-19T06:45:38;1.00;49.90
24636;DHT22;12772;49.794;10.024;2023-01-19T06:49:40;0.90;50.00
24636;DHT22;12772;49.794;10.024;2023-01-19T06:53:42;0.70;50.00
24636;DHT22;12772;49.794;10.024;2023-01-19T06:57:45;0.80;50.70
24636;DHT22;12772;49.794;10.024;2023-01-19T07:01:47;0.70;51.30
24636;DHT22;12772;49.794;10.024;2023-01-19T07:05:52;0.80;52.00
24636;DHT22;12772;49.794;10.024;2023-01-19T07:09:54;0.60;52.60
24636;DHT22;12772;49.794;10.024;2023-01-19T07:13:56;0.60;52.40
24636;DHT22;12772;49.794;10.024;2023-01-19T07:17:58;0.70;52.30
24636;DHT22;12772;49.794;10.024;2023-01-19T07:22:03;0.70;51.90
24636;DHT22;12772;49.794;10.024;2023-01-19T07:26:05;0.80;51.80
24636;DHT22;12772;49.794;10.024;2023-01-19T07:30:08;0.40;51.40
24636;DHT22;12772;49.794;10.024;2023-01-19T07:34:10;0.60;51.70
24636;DHT22;12772;49.794;10.024;2023-01-19T07:38:12;0.70;51.90
24636;DHT22;12772;49.794;10.024;2023-01-19T07:42:14;0.70;51.70
24636;DHT22;12772;49.794;10.024;2023-01-19T07:46:16;0.60;51.80
24636;DHT22;12772;49.794;10.024;2023-01-19T07:50:20;0.30;51.30
24636;DHT22;12772;49.794;10.024;2023-01-19T07:54:25;0.90;52.00
24636;DHT22;12772;49.794;10.024;2023-01-19T07:58:27;0.30;51.40
24636;DHT22;12772;49.794;10.024;2023-01-19T08:02:30;1.00;52.20
24636;DHT22;12772;49.794;10.024;2023-01-19T08:06:35;0.40;51.70
24636;DHT22;12772;49.794;10.024;2023-01-19T08:10:38;0.60;52.00
24636;DHT22;12772;49.794;10.024;2023-01-19T08:14:40;0.60;52.10
24636;DHT22;12772;49.794;10.024;2023-01-19T08:18:42;0.40;52.20
24636;DHT22;12772;49.794;10.024;2023-01-19T08:22:46;0.40;52.30
24636;DHT22;12772;49.794;10.024;2023-01-19T08:26:48;0.90;53.20
24636;DHT22;12772;49.794;10.024;2023-01-19T08:30:50;0.40;53.00
24636;DHT22;12772;49.794;10.024;2023-01-19T08:34:55;0.80;53.90
24636;DHT22;12772;49.794;10.024;2023-01-19T08:38:57;1.20;55.00
24636;DHT22;12772;49.794;10.024;2023-01-19T08:43:06;1.20;55.40
24636;DHT22;12772;49.794;10.024;2023-01-19T08:47:08;1.00;55.30
24636;DHT22;12772;49.794;10.024;2023-01-19T08:51:11;1.20;55.40
24636;DHT22;12772;49.794;10.024;2023-01-19T08:55:15;1.40;55.60
24636;DHT22;12772;49.794;10.024;2023-01-19T08:59:17;1.10;55.30
24636;DHT22;12772;49.794;10.024;2023-01-19T09:03:19;1.30;55.60
24636;DHT22;12772;49.794;10.024;2023-01-19T09:07:22;1.60;55.80
24636;DHT22;12772;49.794;10.024;2023-01-19T09:11:24;1.30;56.00
24636;DHT22;12772;49.794;10.024;2023-01-19T09:15:27;1.50;55.70
24636;DHT22;12772;49.794;10.024;2023-01-19T09:19:29;1.80;56.00
24636;DHT22;12772;49.794;10.024;2023-01-19T09:23:31;2.00;56.00
24636;DHT22;12772;49.794;10.024;2023-01-19T09:27:34;1.80;55.50
24636;DHT22;12772;49.794;10.024;2023-01-19T09:31:36;1.80;55.50
24636;DHT22;12772;49.794;10.024;2023-01-19T09:35:41;2.10;56.10
24636;DHT22;12772;49.794;10.024;2023-01-19T09:39:43;2.00;56.00
24636;DHT22;12772;49.794;10.024;2023-01-19T09:43:53;1.70;55.90
24636;DHT22;12772;49.794;10.024;2023-01-19T09:47:57;2.10;56.30
24636;DHT22;12772;49.794;10.024;2023-01-19T09:52:00;1.70;55.90
24636;DHT22;12772;49.794;10.024;2023-01-19T09:56:02;1.80;56.00
24636;DHT22;12772;49.794;10.024;2023-01-19T10:00:15;2.60;56.80
24636;DHT22;12772;49.794;10.024;2023-01-19T10:04:33;2.30;56.50
24636;DHT22;12772;49.794;10.024;2023-01-19T10:08:46;2.50;56.70
24636;DHT22;12772;49.794;10.024;2023-01-19T10:17:19;2.60;56.80
24636;DHT22;12772;49.794;10.024;2023-01-19T10:21:34;2.20;56.30
24636;DHT22;12772;49.794;10.024;2023-01-19T10:25:39;2.10;56.30
24636;DHT22;12772;49.794;10.024;2023-01-19T10:29:42;2.60;56.80
24636;DHT22;12772;49.794;10.024;2023-01-19T10:33:45;2.70;57.60
24636;DHT22;12772;49.794;10.024;2023-01-19T10:37:47;2.50;56.70
24636;DHT22;12772;49.794;10.024;2023-01-19T10:41:51;2.80;57.00
24636;DHT22;12772;49.794;10.024;2023-01-19T10:45:54;2.50;57.30
24636;DHT22;12772;49.794;10.024;2023-01-19T10:49:56;2.70;56.90
24636;DHT22;12772;49.794;10.024;2023-01-19T10:54:00;2.80;57.00
24636;DHT22;12772;49.794;10.024;2023-01-19T11:02:28;3.50;57.00
24636;DHT22;12772;49.794;10.024;2023-01-19T11:06:32;3.60;56.40
24636;DHT22;12772;49.794;10.024;2023-01-19T11:10:37;3.20;54.60
24636;DHT22;12772;49.794;10.024;2023-01-19T11:14:42;3.60;54.80
24636;DHT22;12772;49.794;10.024;2023-01-19T11:18:44;3.50;54.50
24636;DHT22;12772;49.794;10.024;2023-01-19T11:22:47;3.80;54.20
24636;DHT22;12772;49.794;10.024;2023-01-19T11:26:54;4.10;54.10
24636;DHT22;12772;49.794;10.024;2023-01-19T11:35:38;3.90;53.40
24636;DHT22;12772;49.794;10.024;2023-01-19T11:39:56;4.20;52.80
24636;DHT22;12772;49.794;10.024;2023-01-19T11:44:20;4.10;52.80
24636;DHT22;12772;49.794;10.024;2023-01-19T11:48:32;4.10;52.00
24636;DHT22;12772;49.794;10.024;2023-01-19T11:52:41;3.50;51.40
24636;DHT22;12772;49.794;10.024;2023-01-19T11:56:46;4.10;52.00
24636;DHT22;12772;49.794;10.024;2023-01-19T12:01:02;3.90;52.20
24636;DHT22;12772;49.794;10.024;2023-01-19T12:05:11;3.80;52.00
24636;DHT22;12772;49.794;10.024;2023-01-19T12:09:29;3.90;52.20
24636;DHT22;12772;49.794;10.024;2023-01-19T12:13:32;3.80;52.30
24636;DHT22;12772;49.794;10.024;2023-01-19T12:17:40;3.60;52.50
24636;DHT22;12772;49.794;10.024;2023-01-19T12:21:44;3.50;53.10
24636;DHT22;12772;49.794;10.024;2023-01-19T12:30:22;3.50;53.30
24636;DHT22;12772;49.794;10.024;2023-01-19T12:42:59;3.40;53.70
24636;DHT22;12772;49.794;10.024;2023-01-19T12:47:17;3.60;53.80
24636;DHT22;12772;49.794;10.024;2023-01-19T12:51:24;3.50;53.80
24636;DHT22;12772;49.794;10.024;2023-01-19T12:59:34;3.50;54.10
24636;DHT22;12772;49.794;10.024;2023-01-19T13:03:59;3.50;54.20
24636;DHT22;12772;49.794;10.024;2023-01-19T13:12:19;3.50;54.10
24636;DHT22;12772;49.794;10.024;2023-01-19T13:20:33;3.50;54.00
24636;DHT22;12772;49.794;10.024;2023-01-19T13:25:24;3.50;54.00
24636;DHT22;12772;49.794;10.024;2023-01-19T13:29:32;3.50;54.10
24636;DHT22;12772;49.794;10.024;2023-01-19T13:33:52;3.60;54.10
24636;DHT22;12772;49.794;10.024;2023-01-19T13:37:56;3.40;54.20
24636;DHT22;12772;49.794;10.024;2023-01-19T13:42:12;3.40;54.40
24636;DHT22;12772;49.794;10.024;2023-01-19T13:46:17;3.40;54.50
24636;DHT22;12772;49.794;10.024;2023-01-19T13:54:25;3.30;54.90
24636;DHT22;12772;49.794;10.024;2023-01-19T13:58:27;2.80;54.20
24636;DHT22;12772;49.794;10.024;2023-01-19T14:02:31;3.30;54.90
24636;DHT22;12772;49.794;10.024;2023-01-19T14:06:39;3.40;55.10
24636;DHT22;12772;49.794;10.024;2023-01-19T14:14:56;3.40;55.20
24636;DHT22;12772;49.794;10.024;2023-01-19T14:19:00;3.60;55.30
24636;DHT22;12772;49.794;10.024;2023-01-19T14:23:03;3.30;55.00
24636;DHT22;12772;49.794;10.024;2023-01-19T14:31:20;3.40;54.90
24636;DHT22;12772;49.794;10.024;2023-01-19T14:35:23;3.50;55.10
24636;DHT22;12772;49.794;10.024;2023-01-19T14:39:28;3.40;54.80
24636;DHT22;12772;49.794;10.024;2023-01-19T14:43:31;3.50;55.10
24636;DHT22;12772;49.794;10.024;2023-01-19T14:47:40;3.30;54.70
24636;DHT22;12772;49.794;10.024;2023-01-19T14:51:44;3.20;54.80
24636;DHT22;12772;49.794;10.024;2023-01-19T14:55:53;3.50;55.10
24636;DHT22;12772;49.794;10.024;2023-01-19T14:59:56;3.50;55.40
24636;DHT22;12772;49.794;10.024;2023-01-19T15:03:58;3.40;55.40
24636;DHT22;12772;49.794;10.024;2023-01-19T15:08:01;3.50;55.70
24636;DHT22;12772;49.794;10.024;2023-01-19T15:12:04;3.10;55.30
24636;DHT22;12772;49.794;10.024;2023-01-19T15:16:07;3.00;55.30
24636;DHT22;12772;49.794;10.024;2023-01-19T15:20:14;3.40;55.80
24636;DHT22;12772;49.794;10.024;2023-01-19T15:24:16;3.40;56.50
24636;DHT22;12772;49.794;10.024;2023-01-19T15:28:19;2.90;56.50
24636;DHT22;12772;49.794;10.024;2023-01-19T15:32:21;3.30;57.30
24636;DHT22;12772;49.794;10.024;2023-01-19T15:36:23;3.30;57.60
24636;DHT22;12772;49.794;10.024;2023-01-19T15:40:25;3.20;57.60
24636;DHT22;12772;49.794;10.024;2023-01-19T15:44:27;3.10;57.60
24636;DHT22;12772;49.794;10.024;2023-01-19T15:48:29;2.80;57.60
24636;DHT22;12772;49.794;10.024;2023-01-19T15:52:31;2.80;57.80
24636;DHT22;12772;49.794;10.024;2023-01-19T15:56:33;2.60;57.80
24636;DHT22;12772;49.794;10.024;2023-01-19T16:00:35;2.70;58.90
24636;DHT22;12772;49.794;10.024;2023-01-19T16:04:37;3.00;58.60
24636;DHT22;12772;49.794;10.024;2023-01-19T16:08:39;3.00;58.80
24636;DHT22;12772;49.794;10.024;2023-01-19T16:12:43;2.80;58.80
24636;DHT22;12772;49.794;10.024;2023-01-19T16:16:45;2.70;58.80
24636;DHT22;12772;49.794;10.024;2023-01-19T16:20:47;2.60;58.90
24636;DHT22;12772;49.794;10.024;2023-01-19T16:24:49;2.60;59.00
24636;DHT22;12772;49.794;10.024;2023-01-19T16:29:00;3.00;59.70
24636;DHT22;12772;49.794;10.024;2023-01-19T16:33:08;3.30;60.30
24636;DHT22;12772;49.794;10.024;2023-01-19T16:37:11;3.30;60.20
24636;DHT22;12772;49.794;10.024;2023-01-19T16:41:13;3.30;60.10
24636;DHT22;12772;49.794;10.024;2023-01-19T16:45:15;3.00;59.70
24636;DHT22;12772;49.794;10.024;2023-01-19T16:49:25;3.30;60.10
24636;DHT22;12772;49.794;10.024;2023-01-19T16:53:28;2.70;59.60
24636;DHT22;12772;49.794;10.024;2023-01-19T16:57:30;3.10;60.00
24636;DHT22;12772;49.794;10.024;2023-01-19T17:01:32;3.50;60.20
24636;DHT22;12772;49.794;10.024;2023-01-19T17:05:34;3.40;60.10
24636;DHT22;12772;49.794;10.024;2023-01-19T17:09:36;3.20;60.00
24636;DHT22;12772;49.794;10.024;2023-01-19T17:13:39;3.10;59.70
24636;DHT22;12772;49.794;10.024;2023-01-19T17:17:41;3.40;59.90
24636;DHT22;12772;49.794;10.024;2023-01-19T17:21:43;3.50;60.00
24636;DHT22;12772;49.794;10.024;2023-01-19T17:25:53;3.40;60.00
24636;DHT22;12772;49.794;10.024;2023-01-19T17:29:55;3.40;60.20
24636;DHT22;12772;49.794;10.024;2023-01-19T17:33:58;3.20;60.20
24636;DHT22;12772;49.794;10.024;2023-01-19T17:38:00;3.30;60.50
24636;DHT22;12772;49.794;10.024;2023-01-19T17:42:02;2.90;60.30
24636;DHT22;12772;49.794;10.024;2023-01-19T17:46:04;3.20;60.30
24636;DHT22;12772;49.794;10.024;2023-01-19T17:50:07;3.00;60.20
24636;DHT22;12772;49.794;10.024;2023-01-19T17:54:09;3.30;60.40
24636;DHT22;12772;49.794;10.024;2023-01-19T17:58:12;3.40;60.30
24636;DHT22;12772;49.794;10.024;2023-01-19T18:02:14;3.00;60.10
24636;DHT22;12772;49.794;10.024;2023-01-19T18:06:16;3.60;60.50
24636;DHT22;12772;49.794;10.024;2023-01-19T18:10:19;3.20;60.20
24636;DHT22;12772;49.794;10.024;2023-01-19T18:14:21;2.90;60.00
24636;DHT22;12772;49.794;10.024;2023-01-19T18:18:23;3.10;60.10
24636;DHT22;12772;49.794;10.024;2023-01-19T18:22:25;3.50;60.40
24636;DHT22;12772;49.794;10.024;2023-01-19T18:26:28;3.10;60.10
24636;DHT22;12772;49.794;10.024;2023-01-19T18:30:33;3.50;60.20
24636;DHT22;12772;49.794;10.024;2023-01-19T18:34:36;3.70;60.10
24636;DHT22;12772;49.794;10.024;2023-01-19T18:38:38;3.60;60.20
24636;DHT22;12772;49.794;10.024;2023-01-19T18:42:40;3.40;60.00
24636;DHT22;12772;49.794;10.024;2023-01-19T18:46:43;3.40;60.00
24636;DHT22;12772;49.794;10.024;2023-01-19T18:50:45;3.60;60.00
24636;DHT22;12772;49.794;10.024;2023-01-19T18:54:47;3.60;59.90
24636;DHT22;12772;49.794;10.024;2023-01-19T18:58:49;3.30;59.60
24636;DHT22;12772;49.794;10.024;2023-01-19T19:02:52;3.20;59.50
24636;DHT22;12772;49.794;10.024;2023-01-19T19:06:55;3.60;59.70
24636;DHT22;12772;49.794;10.024;2023-01-19T19:10:57;3.50;59.70
24636;DHT22;12772;49.794;10.024;2023-01-19T19:14:59;3.50;59.70
24636;DHT22;12772;49.794;10.024;2023-01-19T19:19:01;3.50;59.50
24636;DHT22;12772;49.794;10.024;2023-01-19T19:23:03;3.20;59.20
24636;DHT22;12772;49.794;10.024;2023-01-19T19:27:05;3.50;59.30
24636;DHT22;12772;49.794;10.024;2023-01-19T19:31:14;3.40;59.10
24636;DHT22;12772;49.794;10.024;2023-01-19T19:35:17;3.70;59.10
24636;DHT22;12772;49.794;10.024;2023-01-19T19:39:20;3.40;58.60
24636;DHT22;12772;49.794;10.024;2023-01-19T19:43:23;3.30;58.70
24636;DHT22;12772;49.794;10.024;2023-01-19T19:47:25;3.60;59.10
24636;DHT22;12772;49.794;10.024;2023-01-19T19:51:30;3.60;58.90
24636;DHT22;12772;49.794;10.024;2023-01-19T19:55:32;3.70;59.20
24636;DHT22;12772;49.794;10.024;2023-01-19T19:59:34;3.30;59.00
24636;DHT22;12772;49.794;10.024;2023-01-19T20:03:36;3.80;59.40
24636;DHT22;12772;49.794;10.024;2023-01-19T20:07:38;3.10;58.70
24636;DHT22;12772;49.794;10.024;2023-01-19T20:11:46;3.60;59.30
24636;DHT22;12772;49.794;10.024;2023-01-19T20:15:48;3.10;58.30
24636;DHT22;12772;49.794;10.024;2023-01-19T20:19:50;3.20;58.40
24636;DHT22;12772;49.794;10.024;2023-01-19T20:23:54;3.10;58.50
24636;DHT22;12772;49.794;10.024;2023-01-19T20:27:56;3.10;58.70
24636;DHT22;12772;49.794;10.024;2023-01-19T20:31:58;3.00;58.50
24636;DHT22;12772;49.794;10.024;2023-01-19T20:36:01;3.60;59.10
24636;DHT22;12772;49.794;10.024;2023-01-19T20:40:03;3.40;59.00
24636;DHT22;12772;49.794;10.024;2023-01-19T20:44:05;3.80;59.40
24636;DHT22;12772;49.794;10.024;2023-01-19T20:48:07;3.60;59.10
24636;DHT22;12772;49.794;10.024;2023-01-19T20:52:09;3.80;59.00
24636;DHT22;12772;49.794;10.024;2023-01-19T20:56:13;3.70;58.90
24636;DHT22;12772;49.794;10.024;2023-01-19T21:00:16;3.80;58.80
24636;DHT22;12772;49.794;10.024;2023-01-19T21:04:18;4.00;58.90
24636;DHT22;12772;49.794;10.024;2023-01-19T21:08:20;3.90;58.40
24636;DHT22;12772;49.794;10.024;2023-01-19T21:12:22;3.80;58.10
24636;DHT22;12772;49.794;10.024;2023-01-19T21:16:26;3.80;58.10
24636;DHT22;12772;49.794;10.024;2023-01-19T21:20:28;4.00;58.30
24636;DHT22;12772;49.794;10.024;2023-01-19T21:24:30;3.40;57.70
24636;DHT22;12772;49.794;10.024;2023-01-19T21:28:32;4.00;58.30
24636;DHT22;12772;49.794;10.024;2023-01-19T21:32:34;4.10;58.00
24636;DHT22;12772;49.794;10.024;2023-01-19T21:36:36;4.00;57.90
24636;DHT22;12772;49.794;10.024;2023-01-19T21:40:38;4.00;57.60
24636;DHT22;12772;49.794;10.024;2023-01-19T21:44:40;4.20;57.60
24636;DHT22;12772;49.794;10.024;2023-01-19T21:48:42;4.00;57.20
24636;DHT22;12772;49.794;10.024;2023-01-19T21:52:48;3.70;56.80
24636;DHT22;12772;49.794;10.024;2023-01-19T21:56:50;4.00;56.90
24636;DHT22;12772;49.794;10.024;2023-01-19T22:00:59;4.10;56.90
24636;DHT22;12772;49.794;10.024;2023-01-19T22:05:03;3.80;56.60
24636;DHT22;12772;49.794;10.024;2023-01-19T22:09:06;4.30;57.00
24636;DHT22;12772;49.794;10.024;2023-01-19T22:13:08;4.00;56.90
24636;DHT22;12772;49.794;10.024;2023-01-19T22:17:10;3.70;56.70
24636;DHT22;12772;49.794;10.024;2023-01-19T22:21:14;4.10;57.20
24636;DHT22;12772;49.794;10.024;2023-01-19T22:25:17;4.20;57.30
24636;DHT22;12772;49.794;10.024;2023-01-19T22:29:21;3.90;57.20
24636;DHT22;12772;49.794;10.024;2023-01-19T22:33:23;4.10;57.30
24636;DHT22;12772;49.794;10.024;2023-01-19T22:37:25;3.70;57.00
24636;DHT22;12772;49.794;10.024;2023-01-19T22:41:31;4.00;57.30
24636;DHT22;12772;49.794;10.024;2023-01-19T22:45:34;3.60;56.80
24636;DHT22;12772;49.794;10.024;2023-01-19T22:49:36;4.20;57.30
24636;DHT22;12772;49.794;10.024;2023-01-19T22:53:38;4.10;57.30
24636;DHT22;12772;49.794;10.024;2023-01-19T22:57:40;3.80;57.90
24636;DHT22;12772;49.794;10.024;2023-01-19T23:01:42;3.90;57.40
24636;DHT22;12772;49.794;10.024;2023-01-19T23:05:44;4.20;57.70
24636;DHT22;12772;49.794;10.024;2023-01-19T23:09:46;4.00;57.50
24636;DHT22;12772;49.794;10.024;2023-01-19T23:13:49;4.00;57.80
24636;DHT22;12772;49.794;10.024;2023-01-19T23:17:51;3.50;57.30
24636;DHT22;12772;49.794;10.024;2023-01-19T23:21:53;3.40;57.20
24636;DHT22;12772;49.794;10.024;2023-01-19T23:26:07;4.10;57.90
24636;DHT22;12772;49.794;10.024;2023-01-19T23:30:10;4.10;57.80
24636;DHT22;12772;49.794;10.024;2023-01-19T23:34:12;4.00;57.70
24636;DHT22;12772;49.794;10.024;2023-01-19T23:38:15;3.80;57.40
24636;DHT22;12772;49.794;10.024;2023-01-19T23:42:17;4.20;57.70
24636;DHT22;12772;49.794;10.024;2023-01-19T23:46:19;3.60;57.10
24636;DHT22;12772;49.794;10.024;2023-01-19T23:50:21;3.70;57.00
24636;DHT22;12772;49.794;10.024;2023-01-19T23:54:23;3.90;57.10
24636;DHT22;12772;49.794;10.024;2023-01-19T23:58:25;4.00;57.30
